createdAt,value
2023-02-22T00:01:51.124Z,18.20
2023-02-22T00:04:21.261Z,18.10
2023-02-22T00:06:49.060Z,17.70
2023-02-22T00:09:20.765Z,17.60
2023-02-22T00:11:48.875Z,19.13
2023-02-22T00:14:18.043Z,17.80
2023-02-22T00:16:44.840Z,17.85
2023-02-22T00:19:11.463Z,19.15
2023-02-22T00:21:38.150Z,18.25
2023-02-22T00:24:23.112Z,18.83
2023-02-22T00:26:57.661Z,18.60
2023-02-22T00:29:25.556Z,18.02
2023-02-22T00:31:52.339Z,18.38
2023-02-22T00:34:19.045Z,18.23
2023-02-22T00:36:49.667Z,17.52
2023-02-22T00:39:16.440Z,17.77
2023-02-22T00:41:43.412Z,17.75
2023-02-22T00:44:10.437Z,17.67
2023-02-22T00:46:37.240Z,16.00
2023-02-22T00:49:05.318Z,17.15
2023-02-22T00:51:32.065Z,17.10
2023-02-22T00:53:58.692Z,16.77
2023-02-22T00:56:25.433Z,16.63
2023-02-22T00:58:52.113Z,17.75
2023-02-22T01:01:19.066Z,17.50
2023-02-22T01:03:46.061Z,17.08
2023-02-22T01:06:12.943Z,16.13
2023-02-22T01:08:44.399Z,16.13
2023-02-22T01:11:11.008Z,16.17
2023-02-22T01:13:38.389Z,15.63
2023-02-22T01:16:08.369Z,16.92
2023-02-22T01:18:38.104Z,16.55
2023-02-22T01:21:06.057Z,16.40
2023-02-22T01:23:33.250Z,16.55
2023-02-22T01:25:59.847Z,16.63
2023-02-22T01:28:26.752Z,15.65
2023-02-22T01:30:56.218Z,15.68
2023-02-22T01:33:23.037Z,15.57
2023-02-22T01:35:51.023Z,15.98
2023-02-22T01:38:17.690Z,15.73
2023-02-22T01:40:50.334Z,15.98
2023-02-22T01:43:29.765Z,15.45
2023-02-22T01:46:08.495Z,15.35
2023-02-22T01:48:49.639Z,14.85
2023-02-22T01:51:19.849Z,15.45
2023-02-22T01:53:52.934Z,15.07
2023-02-22T01:56:20.974Z,15.93
2023-02-22T01:58:54.083Z,15.65
2023-02-22T02:04:07.745Z,14.55
2023-02-22T02:06:35.980Z,15.48
2023-02-22T02:09:30.682Z,14.77
2023-02-22T02:12:00.970Z,13.75
2023-02-22T02:14:27.584Z,16.38
2023-02-22T02:16:56.317Z,14.57
2023-02-22T02:19:57.060Z,15.13
2023-02-22T02:22:29.943Z,14.57
2023-02-22T02:25:37.909Z,14.82
2023-02-22T02:28:26.436Z,14.95
2023-02-22T02:31:17.790Z,13.43
2023-02-22T02:33:54.820Z,14.77
2023-02-22T02:36:34.354Z,13.48
2023-02-22T02:39:29.431Z,14.93
2023-02-22T02:41:58.295Z,15.30
2023-02-22T02:44:33.124Z,14.82
2023-02-22T02:47:31.109Z,14.60
2023-02-22T02:50:07.010Z,14.77
2023-02-22T02:52:35.475Z,15.30
2023-02-22T02:55:04.124Z,14.63
2023-02-22T02:57:30.946Z,14.98
2023-02-22T02:59:57.537Z,14.82
2023-02-22T03:02:36.224Z,14.77
2023-02-22T03:05:15.224Z,15.10
2023-02-22T03:07:49.448Z,14.95
2023-02-22T03:10:52.082Z,14.85
2023-02-22T03:13:43.109Z,15.82
2023-02-22T03:16:21.312Z,14.98
2023-02-22T03:18:54.748Z,14.55
2023-02-22T03:21:28.629Z,15.02
2023-02-22T03:24:10.048Z,15.68
2023-02-22T03:27:09.529Z,14.48
2023-02-22T03:29:39.692Z,15.68
2023-02-22T03:32:11.675Z,15.68
2023-02-22T03:34:43.485Z,17.20
2023-02-22T03:37:19.926Z,15.27
2023-02-22T03:39:49.019Z,15.30
2023-02-22T03:42:23.278Z,14.73
2023-02-22T03:44:52.812Z,14.70
2023-02-22T03:47:25.888Z,14.82
2023-02-22T03:50:00.542Z,14.38
2023-02-22T03:52:27.505Z,13.77
2023-02-22T03:54:54.145Z,14.63
2023-02-22T03:57:26.827Z,14.43
2023-02-22T03:59:53.584Z,14.63
2023-02-22T04:02:20.820Z,14.57
2023-02-22T04:04:47.932Z,13.45
2023-02-22T04:07:15.004Z,14.23
2023-02-22T04:09:42.237Z,14.80
2023-02-22T04:12:09.012Z,14.88
2023-02-22T04:14:35.800Z,14.77
2023-02-22T04:17:02.324Z,15.35
2023-02-22T04:19:29.437Z,14.50
2023-02-22T04:21:56.091Z,15.27
2023-02-22T04:24:22.662Z,15.38
2023-02-22T04:26:50.173Z,16.02
2023-02-22T04:29:16.941Z,15.45
2023-02-22T04:31:43.539Z,14.55
2023-02-22T04:34:10.153Z,15.48
2023-02-22T04:36:36.794Z,14.50
2023-02-22T04:39:04.244Z,15.15
2023-02-22T04:41:31.618Z,15.13
2023-02-22T04:43:58.341Z,14.90
2023-02-22T04:46:24.933Z,14.63
2023-02-22T04:48:51.655Z,14.68
2023-02-22T04:51:19.908Z,14.93
2023-02-22T04:53:46.724Z,14.35
2023-02-22T04:56:13.320Z,14.15
2023-02-22T04:58:40.023Z,14.55
2023-02-22T05:01:06.552Z,14.48
2023-02-22T05:03:33.252Z,13.90
2023-02-22T05:05:59.873Z,14.75
2023-02-22T05:08:26.578Z,14.25
2023-02-22T05:10:53.198Z,14.77
2023-02-22T05:13:19.987Z,14.32
2023-02-22T05:15:47.861Z,14.27
2023-02-22T05:18:15.211Z,14.02
2023-02-22T05:20:41.859Z,14.00
2023-02-22T05:23:08.705Z,14.65
2023-02-22T05:25:35.424Z,14.15
2023-02-22T05:28:05.219Z,14.75
2023-02-22T05:30:35.595Z,14.35
2023-02-22T05:33:02.661Z,15.40
2023-02-22T05:35:29.481Z,14.82
2023-02-22T05:37:56.591Z,14.45
2023-02-22T05:40:26.335Z,14.02
2023-02-22T05:42:53.698Z,15.52
2023-02-22T05:45:22.812Z,15.15
2023-02-22T05:47:50.274Z,14.45
2023-02-22T05:50:19.713Z,14.93
2023-02-22T05:52:48.732Z,14.05
2023-02-22T05:55:17.393Z,13.75
2023-02-22T05:57:44.328Z,14.75
2023-02-22T06:00:16.506Z,13.40
2023-02-22T06:02:43.200Z,14.23
2023-02-22T06:05:09.867Z,14.25
2023-02-22T06:07:36.451Z,14.48
2023-02-22T06:10:03.440Z,14.32
2023-02-22T06:12:30.093Z,14.10
2023-02-22T06:14:56.716Z,13.38
2023-02-22T06:17:23.489Z,14.23
2023-02-22T06:19:50.062Z,14.38
2023-02-22T06:22:18.327Z,14.10
2023-02-22T06:24:45.306Z,14.48
2023-02-22T06:27:12.302Z,14.38
2023-02-22T06:29:38.934Z,14.38
2023-02-22T06:32:08.126Z,14.40
2023-02-22T06:34:34.755Z,14.40
2023-02-22T06:37:01.304Z,13.77
2023-02-22T06:39:27.966Z,14.23
2023-02-22T06:41:56.437Z,14.25
2023-02-22T06:44:23.865Z,14.35
2023-02-22T06:46:53.542Z,15.68
2023-02-22T06:49:20.455Z,15.35
2023-02-22T06:51:47.773Z,14.13
2023-02-22T06:54:14.926Z,14.25
2023-02-22T06:56:41.522Z,13.73
2023-02-22T06:59:08.599Z,14.02
2023-02-22T07:01:35.743Z,15.20
2023-02-22T07:04:03.014Z,14.70
2023-02-22T07:06:29.665Z,15.02
2023-02-22T07:08:56.405Z,14.75
2023-02-22T07:11:23.304Z,14.27
2023-02-22T07:13:49.997Z,14.80
2023-02-22T07:16:16.789Z,14.88
2023-02-22T07:18:43.405Z,15.35
2023-02-22T07:21:10.779Z,14.48
2023-02-22T07:23:38.460Z,14.88
2023-02-22T07:26:05.579Z,14.57
2023-02-22T07:28:32.264Z,15.10
2023-02-22T07:30:59.216Z,15.68
2023-02-22T07:33:26.929Z,15.07
2023-02-22T07:35:53.618Z,15.57
2023-02-22T07:38:21.280Z,15.13
2023-02-22T07:40:47.981Z,15.20
2023-02-22T07:43:22.586Z,15.10
2023-02-22T07:45:51.599Z,15.18
2023-02-22T07:48:19.935Z,15.48
2023-02-22T07:50:47.396Z,15.38
2023-02-22T07:53:16.935Z,14.40
2023-02-22T07:55:43.807Z,15.48
2023-02-22T07:58:15.242Z,15.95
2023-02-22T08:00:44.034Z,16.10
2023-02-22T08:03:13.143Z,16.00
2023-02-22T08:05:42.869Z,16.20
2023-02-22T08:08:09.466Z,16.48
2023-02-22T08:10:36.606Z,15.90
2023-02-22T08:13:05.219Z,16.55
2023-02-22T08:15:37.898Z,16.05
2023-02-22T08:18:09.144Z,16.48
2023-02-22T08:20:36.870Z,16.17
2023-02-22T08:23:05.892Z,15.75
2023-02-22T08:25:32.619Z,15.68
2023-02-22T08:28:02.112Z,17.25
2023-02-22T08:30:30.834Z,19.33
2023-02-22T08:32:58.583Z,17.23
2023-02-22T08:35:27.535Z,17.90
2023-02-22T08:37:57.477Z,17.73
2023-02-22T08:40:26.105Z,17.23
2023-02-22T08:42:52.708Z,17.05
2023-02-22T08:45:19.932Z,17.35
2023-02-22T08:47:47.401Z,17.58
2023-02-22T08:50:26.912Z,17.08
2023-02-22T08:52:55.909Z,16.92
2023-02-22T08:55:28.789Z,16.98
2023-02-22T08:57:55.538Z,16.83
2023-02-22T09:00:25.662Z,16.98
2023-02-22T09:02:53.103Z,17.42
2023-02-22T09:05:19.989Z,17.85
2023-02-22T09:07:46.872Z,18.00
2023-02-22T09:10:16.837Z,18.17
2023-02-22T09:12:43.481Z,18.25
2023-02-22T09:15:11.679Z,28.30
2023-02-22T09:17:38.782Z,21.40
2023-02-22T09:20:07.439Z,20.13
2023-02-22T09:22:34.261Z,19.55
2023-02-22T09:25:11.431Z,18.42
2023-02-22T09:27:43.746Z,18.83
2023-02-22T09:30:24.029Z,19.23
2023-02-22T09:32:55.558Z,19.33
2023-02-22T09:35:27.320Z,19.83
2023-02-22T09:37:58.986Z,19.27
2023-02-22T09:40:31.204Z,18.73
2023-02-22T09:43:14.241Z,18.42
2023-02-22T09:45:50.068Z,20.33
2023-02-22T09:48:22.477Z,20.30
2023-02-22T09:50:53.072Z,20.13
2023-02-22T09:53:33.152Z,19.50
2023-02-22T09:56:06.995Z,19.73
2023-02-22T09:58:40.226Z,19.73
2023-02-22T10:01:28.612Z,19.83
2023-02-22T10:04:23.350Z,20.02
2023-02-22T10:07:26.145Z,20.58
2023-02-22T10:09:56.752Z,19.45
2023-02-22T10:12:47.339Z,21.38
2023-02-22T10:15:41.900Z,22.13
2023-02-22T10:18:32.868Z,21.33
2023-02-22T10:21:11.708Z,20.90
2023-02-22T10:23:44.257Z,22.55
2023-02-22T10:26:17.024Z,21.75
2023-02-22T10:28:55.343Z,20.27
2023-02-22T10:31:36.542Z,21.52
2023-02-22T10:34:12.635Z,19.63
2023-02-22T10:36:39.325Z,21.40
2023-02-22T10:39:24.511Z,21.40
2023-02-22T10:41:55.735Z,21.92
2023-02-22T10:44:22.329Z,20.80
2023-02-22T10:46:49.843Z,20.63
2023-02-22T10:49:22.009Z,20.27
2023-02-22T10:52:01.031Z,20.60
2023-02-22T10:54:43.015Z,19.85
2023-02-22T10:57:12.166Z,20.88
2023-02-22T10:59:41.188Z,20.75
2023-02-22T11:02:23.564Z,21.27
2023-02-22T11:04:51.985Z,20.67
2023-02-22T11:07:21.915Z,20.38
2023-02-22T11:09:53.196Z,21.02
2023-02-22T11:12:48.633Z,20.52
2023-02-22T11:15:19.051Z,21.13
2023-02-22T11:17:47.685Z,20.77
2023-02-22T11:20:29.585Z,21.00
2023-02-22T11:23:01.006Z,20.25
2023-02-22T11:25:34.959Z,21.00
2023-02-22T11:28:17.617Z,21.52
2023-02-22T11:30:51.320Z,20.65
2023-02-22T11:33:23.939Z,21.85
2023-02-22T11:36:02.510Z,20.00
2023-02-22T11:38:34.544Z,19.35
2023-02-22T11:41:26.326Z,21.75
2023-02-22T11:43:54.452Z,20.15
2023-02-22T11:46:29.260Z,22.90
2023-02-22T11:49:04.811Z,21.23
2023-02-22T11:51:31.358Z,21.42
2023-02-22T11:54:28.973Z,22.55
2023-02-22T11:57:07.308Z,22.13
2023-02-22T11:59:56.138Z,20.98
2023-02-22T12:02:28.367Z,20.85
2023-02-22T12:05:10.148Z,20.23
2023-02-22T12:07:48.561Z,18.35
2023-02-22T12:10:18.685Z,18.25
2023-02-22T12:13:06.399Z,16.17
2023-02-22T12:15:47.151Z,16.08
2023-02-22T12:18:16.506Z,17.27
2023-02-22T12:21:07.995Z,17.15
2023-02-22T12:23:40.720Z,16.33
2023-02-22T12:26:34.980Z,17.00
2023-02-22T12:29:26.613Z,17.92
2023-02-22T12:32:07.028Z,16.83
2023-02-22T12:34:41.479Z,17.20
2023-02-22T12:37:23.904Z,18.20
2023-02-22T12:39:56.349Z,17.70
2023-02-22T12:43:01.623Z,16.45
2023-02-22T12:45:36.916Z,16.98
2023-02-22T12:48:27.971Z,16.27
2023-02-22T12:50:59.098Z,16.30
2023-02-22T12:53:34.911Z,16.83
2023-02-22T12:56:22.421Z,16.77
2023-02-22T12:58:55.670Z,16.38
2023-02-22T13:01:26.917Z,16.63
2023-02-22T13:03:54.382Z,16.10
2023-02-22T13:06:21.086Z,17.02
2023-02-22T13:09:02.407Z,16.42
2023-02-22T13:11:59.807Z,16.73
2023-02-22T13:14:26.575Z,17.23
2023-02-22T13:17:21.527Z,17.05
2023-02-22T13:19:54.017Z,18.35
2023-02-22T13:22:47.819Z,18.48
2023-02-22T13:25:22.822Z,17.92
2023-02-22T13:27:57.772Z,18.48
2023-02-22T13:30:36.569Z,17.92
2023-02-22T13:33:10.738Z,16.67
2023-02-22T13:35:47.490Z,18.95
2023-02-22T13:38:35.764Z,17.38
2023-02-22T13:41:05.688Z,16.83
2023-02-22T13:44:14.337Z,17.40
2023-02-22T13:46:44.179Z,16.80
2023-02-22T13:49:25.586Z,16.88
2023-02-22T13:51:56.782Z,17.50
2023-02-22T13:54:35.454Z,16.92
2023-02-22T13:57:05.358Z,17.40
2023-02-22T13:59:36.395Z,16.67
2023-02-22T14:02:08.217Z,16.45
2023-02-22T16:01:42.028Z,12.07
2023-02-22T16:04:18.261Z,11.55
2023-02-22T16:06:45.802Z,12.48
2023-02-22T16:09:22.978Z,12.35
2023-02-22T16:11:50.135Z,13.07
2023-02-22T16:14:39.395Z,12.85
2023-02-22T16:17:24.922Z,12.52
2023-02-22T16:19:52.866Z,12.02
2023-02-22T16:22:35.405Z,12.10
2023-02-22T16:25:25.255Z,11.70
2023-02-22T16:27:56.127Z,11.10
2023-02-22T16:33:21.968Z,10.85
2023-02-22T16:35:57.101Z,9.73
2023-02-22T16:38:27.684Z,9.85
2023-02-22T16:40:59.425Z,11.45
2023-02-22T16:43:31.602Z,10.63
2023-02-22T16:45:58.918Z,10.60
2023-02-22T16:48:27.473Z,11.23
2023-02-22T16:50:55.934Z,11.68
2023-02-22T16:53:25.322Z,11.07
2023-02-22T16:55:57.833Z,11.68
2023-02-22T16:58:28.004Z,11.68
2023-02-22T17:00:57.296Z,12.63
2023-02-22T17:03:25.483Z,11.70
2023-02-22T17:05:52.344Z,13.30
2023-02-22T17:08:19.115Z,13.48
2023-02-22T17:10:46.518Z,13.13
2023-02-22T17:13:23.026Z,13.55
2023-02-22T17:15:51.624Z,13.13
2023-02-22T17:18:22.987Z,12.75
2023-02-22T17:20:51.617Z,13.82
2023-02-22T17:23:20.226Z,13.57
2023-02-22T17:26:03.358Z,13.85
2023-02-22T17:28:31.139Z,13.50
2023-02-22T17:31:01.233Z,13.15
2023-02-22T17:33:31.304Z,14.63
2023-02-22T17:36:01.783Z,13.88
2023-02-22T17:38:30.308Z,15.40
2023-02-22T17:40:59.030Z,13.68
2023-02-22T17:43:27.938Z,14.02
2023-02-22T17:45:55.079Z,14.48
2023-02-22T17:48:24.029Z,13.10
2023-02-22T17:50:51.724Z,13.07
2023-02-22T17:53:21.790Z,13.93
2023-02-22T17:55:49.514Z,14.30
2023-02-22T17:58:16.391Z,13.65
2023-02-22T18:00:46.261Z,14.70
2023-02-22T18:03:21.814Z,14.45
2023-02-22T18:05:50.405Z,14.60
2023-02-22T18:08:17.616Z,14.68
2023-02-22T18:10:45.520Z,14.23
2023-02-22T18:13:18.729Z,13.50
2023-02-22T18:15:46.937Z,13.48
2023-02-22T18:18:13.691Z,13.60
2023-02-22T18:20:45.106Z,12.98
2023-02-22T18:23:16.163Z,11.30
2023-02-22T18:26:03.728Z,12.00
2023-02-22T18:28:35.823Z,10.77
2023-02-22T18:31:07.728Z,12.95
2023-02-22T18:33:34.313Z,12.40
2023-02-22T18:36:00.897Z,12.20
2023-02-22T18:38:27.594Z,12.93
2023-02-22T18:41:06.261Z,14.48
2023-02-22T18:43:36.417Z,13.75
2023-02-22T18:46:10.095Z,13.50
2023-02-22T18:48:37.585Z,13.40
2023-02-22T18:51:07.223Z,14.00
2023-02-22T18:53:33.897Z,13.35
2023-02-22T18:56:08.880Z,13.18
2023-02-22T18:58:38.633Z,12.98
2023-02-22T19:01:07.164Z,13.48
2023-02-22T19:03:38.126Z,13.15
2023-02-22T19:06:10.470Z,12.75
2023-02-22T19:08:42.328Z,12.15
2023-02-22T19:11:18.004Z,11.57
2023-02-22T19:13:50.838Z,12.13
2023-02-22T19:16:22.256Z,13.45
2023-02-22T19:18:57.097Z,13.48
2023-02-22T19:21:25.163Z,13.18
2023-02-22T19:23:51.846Z,13.43
2023-02-22T19:26:24.227Z,13.88
2023-02-22T19:28:52.831Z,13.70
2023-02-22T19:31:26.488Z,14.43
2023-02-22T19:33:53.507Z,14.05
2023-02-22T19:36:23.124Z,14.10
2023-02-22T19:38:49.932Z,14.15
2023-02-22T19:41:21.927Z,13.68
2023-02-22T19:43:50.726Z,13.25
2023-02-22T19:46:17.939Z,12.55
2023-02-22T19:48:48.716Z,13.00
2023-02-22T19:51:17.182Z,13.80
2023-02-22T19:53:44.923Z,14.95
2023-02-22T19:56:16.321Z,13.57
2023-02-22T19:58:44.673Z,14.20
2023-02-22T20:01:12.592Z,14.13
2023-02-22T20:03:39.604Z,15.07
2023-02-22T20:06:09.200Z,14.88
2023-02-22T20:08:37.317Z,14.73
2023-02-22T20:11:05.814Z,15.10
2023-02-22T20:13:33.537Z,15.35
2023-02-22T20:16:00.613Z,15.40
2023-02-22T20:18:27.235Z,15.98
2023-02-22T20:20:53.914Z,14.98
2023-02-22T20:23:20.602Z,14.98
2023-02-22T20:25:57.038Z,21.73
2023-02-22T20:28:24.290Z,19.55
2023-02-22T20:30:51.779Z,16.10
2023-02-22T20:33:22.074Z,16.08
2023-02-22T20:35:48.839Z,15.98
2023-02-22T20:38:15.492Z,44.47
2023-02-22T20:40:42.595Z,31.13
2023-02-22T20:43:10.045Z,22.15
2023-02-22T20:45:37.690Z,20.38
2023-02-22T20:48:05.410Z,17.55
2023-02-22T20:50:33.175Z,19.38
2023-02-22T20:52:59.790Z,16.30
2023-02-22T20:55:26.627Z,16.88
2023-02-22T20:57:53.358Z,16.90
2023-02-22T21:00:19.996Z,15.77
2023-02-22T21:02:46.989Z,16.08
2023-02-22T21:05:16.487Z,16.20
2023-02-22T21:07:43.127Z,15.50
2023-02-22T21:10:09.871Z,16.88
2023-02-22T21:12:36.758Z,16.63
2023-02-22T21:15:03.706Z,15.80
2023-02-22T21:17:30.978Z,16.05
2023-02-22T21:19:58.647Z,16.88
2023-02-22T21:22:25.393Z,16.05
2023-02-22T21:24:52.253Z,15.43
2023-02-22T21:27:19.223Z,16.60
2023-02-22T21:29:45.859Z,15.38
2023-02-22T21:32:13.960Z,16.10
2023-02-22T21:34:40.947Z,15.77
2023-02-22T21:37:08.402Z,16.23
2023-02-22T21:39:35.576Z,15.77
2023-02-22T21:42:02.639Z,16.58
2023-02-22T21:44:29.973Z,15.43
2023-02-22T21:46:58.133Z,16.92
2023-02-22T21:49:26.360Z,16.73
2023-02-22T21:51:53.047Z,16.98
2023-02-22T21:54:20.102Z,17.13
2023-02-22T21:56:46.812Z,17.33
2023-02-22T21:59:18.815Z,16.65
2023-02-22T22:01:48.256Z,16.35
2023-02-22T22:04:20.212Z,16.42
2023-02-22T22:06:49.149Z,17.40
2023-02-22T22:09:18.738Z,15.48
2023-02-22T22:11:50.857Z,14.98
2023-02-22T22:14:23.168Z,15.45
2023-02-22T22:16:51.503Z,16.35
2023-02-22T22:19:18.338Z,17.23
2023-02-22T22:21:46.720Z,17.27
2023-02-22T22:24:13.503Z,17.23
2023-02-22T22:26:40.405Z,16.55
2023-02-22T22:29:10.487Z,17.63
2023-02-22T22:31:37.638Z,16.63
2023-02-22T22:34:05.028Z,17.45
2023-02-22T22:36:31.868Z,16.58
2023-02-22T22:38:58.474Z,16.77
2023-02-22T22:41:28.241Z,17.33
2023-02-22T22:43:55.512Z,17.10
2023-02-22T22:46:22.272Z,16.73
2023-02-22T22:48:48.942Z,17.40
2023-02-22T22:51:20.440Z,15.88
2023-02-22T22:53:49.150Z,16.70
2023-02-22T22:56:26.966Z,16.90
2023-02-22T22:58:56.158Z,16.38
2023-02-22T23:01:28.666Z,16.75
2023-02-22T23:04:03.669Z,17.45
2023-02-22T23:06:43.950Z,16.42
2023-02-22T23:09:19.564Z,17.35
2023-02-22T23:11:51.033Z,16.90
2023-02-22T23:14:20.734Z,17.02
2023-02-22T23:16:53.074Z,16.67
2023-02-22T23:19:20.292Z,16.60
2023-02-22T23:21:48.550Z,17.02
2023-02-22T23:24:17.699Z,16.33
2023-02-22T23:26:48.741Z,17.10
2023-02-22T23:29:20.713Z,16.77
2023-02-22T23:31:48.706Z,16.77
2023-02-22T23:34:21.487Z,17.92
2023-02-22T23:36:48.819Z,17.23
2023-02-22T23:39:17.985Z,17.05
2023-02-22T23:41:44.689Z,16.20
2023-02-22T23:44:17.425Z,17.52
2023-02-22T23:46:57.084Z,17.95
2023-02-22T23:55:20.917Z,17.77
2023-02-22T23:57:48.629Z,16.92
